Time;durP1;ratioP1;P1;durP2;ratioP2;P2;SDS_P1;SDS_P2;PMS_P1;PMS_P2;Temp;Humidity;BMP_temperature;BMP_pressure;BME280_temperature;BME280_humidity;BME280_pressure;Samples;Min_cycle;Max_cycle;Signal;HPM_P1;HPM_P2
2024/02/15 00:00:37;;;;;;;;;;;;;;;10.29;100.00;100781.06;4982230;28;19934;-78
2024/02/15 00:03:07;;;;;;;;;;;;;;;10.28;100.00;100776.69;4980963;28;19926;-76
2024/02/15 00:05:52;;;;;;;;;;;;;;;10.24;100.00;100780.34;4983804;28;19985;-75
2024/02/15 00:08:22;;;;;;;;;;;;;;;10.23;100.00;100774.19;4967670;28;19930;-79
2024/02/15 00:10:50;;;;;;;;;;;;;;;10.22;100.00;100772.50;4976763;28;19933;-77
2024/02/15 00:13:22;;;;;;;;;;;;;;;10.17;100.00;100764.72;5007556;28;20546;-77
2024/02/15 00:15:50;;;;;;;;;;;;;;;10.12;100.00;100769.31;4980367;28;20444;-79
2024/02/15 00:18:18;;;;;;;;;;;;;;;10.09;100.00;100772.06;5012665;28;19961;-78
2024/02/15 00:20:46;;;;;;;;;;;;;;;10.09;100.00;100777.38;4977930;28;19934;-77
2024/02/15 00:23:16;;;;;;;;;;;;;;;10.09;100.00;100774.72;4964393;28;20164;-78
2024/02/15 00:25:44;;;;;;;;;;;;;;;10.09;100.00;100787.94;4989377;28;20022;-78
2024/02/15 00:28:13;;;;;;;;;;;;;;;10.08;100.00;100786.22;5000262;28;19922;-77
2024/02/15 00:30:43;;;;;;;;;;;;;;;10.08;100.00;100786.22;4976753;28;20013;-77
2024/02/15 00:33:11;;;;;;;;;;;;;;;10.08;100.00;100786.22;4958548;28;20476;-75
2024/02/15 00:35:40;;;;;;;;;;;;;;;10.10;100.00;100789.66;5005257;28;20399;-76
2024/02/15 00:38:09;;;;;;;;;;;;;;;10.11;100.00;100785.25;4973930;28;19922;-78
2024/02/15 00:40:39;;;;;;;;;;;;;;;10.11;100.00;100782.59;4991629;28;19932;-78
2024/02/15 00:43:07;;;;;;;;;;;;;;;10.10;100.00;100781.72;4993106;28;20028;-77
2024/02/15 00:45:35;;;;;;;;;;;;;;;10.13;100.00;100784.28;4995431;28;19933;-77
2024/02/15 00:48:06;;;;;;;;;;;;;;;10.14;100.00;100780.69;4961852;28;19930;-77
2024/02/15 00:50:36;;;;;;;;;;;;;;;10.13;100.00;100780.75;5017879;28;20408;-77
2024/02/15 00:53:05;;;;;;;;;;;;;;;10.10;100.00;100783.50;4987065;28;19930;-77
2024/02/15 00:55:33;;;;;;;;;;;;;;;10.09;100.00;100782.66;4984432;28;20048;-78
2024/02/15 00:58:00;;;;;;;;;;;;;;;10.11;100.00;100785.25;4976946;28;20053;-77
2024/02/15 01:00:29;;;;;;;;;;;;;;;10.10;100.00;100784.38;4978578;28;19930;-79
2024/02/15 01:02:57;;;;;;;;;;;;;;;10.11;100.00;100791.41;4976754;28;19925;-79
2024/02/15 01:05:31;;;;;;;;;;;;;;;10.12;100.00;100787.84;4995881;28;20016;-78
2024/02/15 01:08:00;;;;;;;;;;;;;;;10.13;100.00;100780.75;5005322;28;19965;-78
2024/02/15 01:10:27;;;;;;;;;;;;;;;10.14;100.00;100786.00;4961173;28;20428;-78
2024/02/15 01:12:55;;;;;;;;;;;;;;;10.14;100.00;100788.63;4977031;28;20041;-78
2024/02/15 01:15:23;;;;;;;;;;;;;;;10.12;100.00;100793.13;4966282;28;20275;-79
2024/02/15 01:17:52;;;;;;;;;;;;;;;10.12;100.00;100790.47;4977374;28;20025;-77
2024/02/15 01:20:21;;;;;;;;;;;;;;;10.10;100.00;100784.38;5005106;28;19932;-78
2024/02/15 01:22:51;;;;;;;;;;;;;;;10.14;100.00;100785.13;4980986;28;19922;-77
2024/02/15 01:25:19;;;;;;;;;;;;;;;10.15;100.00;100785.06;4987964;28;19928;-77
2024/02/15 01:27:47;;;;;;;;;;;;;;;10.14;100.00;100780.69;4981106;28;19925;-77
2024/02/15 01:30:15;;;;;;;;;;;;;;;10.12;100.00;100782.53;4990878;28;19957;-78
2024/02/15 01:32:43;;;;;;;;;;;;;;;10.12;100.00;100782.53;4977795;28;19934;-79
2024/02/15 01:35:11;;;;;;;;;;;;;;;10.12;100.00;100777.25;4979038;28;19932;-77
2024/02/15 01:37:40;;;;;;;;;;;;;;;10.13;100.00;100780.75;4978558;28;19933;-78
2024/02/15 01:40:16;;;;;;;;;;;;;;;10.13;100.00;100780.75;4977847;28;20088;-76
2024/02/15 01:42:45;;;;;;;;;;;;;;;10.13;100.00;100778.97;5007941;28;20017;-79
2024/02/15 01:45:14;;;;;;;;;;;;;;;10.13;100.00;100771.03;4974992;28;19941;-77
2024/02/15 01:47:43;;;;;;;;;;;;;;;10.15;100.00;100776.28;4974536;28;19930;-77
2024/02/15 01:50:12;;;;;;;;;;;;;;;10.12;100.00;100774.59;4977539;28;19926;-78
2024/02/15 01:52:43;;;;;;;;;;;;;;;10.09;100.00;100765.91;4982132;28;20379;-78
2024/02/15 01:55:14;;;;;;;;;;;;;;;10.08;100.00;100764.19;4979143;28;19930;-76
2024/02/15 01:57:44;;;;;;;;;;;;;;;10.07;100.00;100768.63;4991557;28;19930;-78
2024/02/15 02:00:16;;;;;;;;;;;;;;;10.10;100.00;100768.50;4978918;28;20319;-78
2024/02/15 02:02:45;;;;;;;;;;;;;;;10.10;100.00;100768.50;4977444;28;19949;-78
2024/02/15 02:05:13;;;;;;;;;;;;;;;10.10;100.00;100773.78;4991329;28;19933;-78
2024/02/15 02:07:43;;;;;;;;;;;;;;;10.09;100.00;100764.13;4991944;28;20403;-78
2024/02/15 02:10:14;;;;;;;;;;;;;;;10.10;100.00;100762.34;4990609;28;19968;-77
2024/02/15 02:12:43;;;;;;;;;;;;;;;10.10;100.00;100772.94;4979988;28;19926;-76
2024/02/15 02:15:11;;;;;;;;;;;;;;;10.11;100.00;100764.94;4991570;28;20389;-77
2024/02/15 02:17:40;;;;;;;;;;;;;;;10.14;100.00;100774.53;4962133;28;19949;-76
2024/02/15 02:20:13;;;;;;;;;;;;;;;10.12;100.00;100771.09;4978425;28;19926;-77
2024/02/15 02:22:44;;;;;;;;;;;;;;;10.10;100.00;100765.00;4992622;28;19929;-76
2024/02/15 02:25:13;;;;;;;;;;;;;;;10.09;100.00;100761.47;4976990;28;19936;-76
2024/02/15 02:27:41;;;;;;;;;;;;;;;10.10;100.00;100762.34;5000545;28;19977;-78
2024/02/15 02:30:14;;;;;;;;;;;;;;;10.08;100.00;100759.75;4974609;28;19929;-77
2024/02/15 02:32:42;;;;;;;;;;;;;;;10.10;100.00;100765.00;4989935;28;19936;-76
2024/02/15 02:35:12;;;;;;;;;;;;;;;10.08;100.00;100762.41;4977781;28;19980;-76
2024/02/15 02:37:40;;;;;;;;;;;;;;;10.10;100.00;100772.94;4992636;28;20685;-79
2024/02/15 02:40:08;;;;;;;;;;;;;;;10.10;100.00;100759.69;4987892;28;20350;-76
2024/02/15 02:42:47;;;;;;;;;;;;;;;10.13;100.00;100764.88;4972918;28;19921;-77
2024/02/15 02:45:15;;;;;;;;;;;;;;;10.13;100.00;100759.59;4990576;28;20549;-78
2024/02/15 02:47:43;;;;;;;;;;;;;;;10.15;100.00;100763.91;4998927;28;20474;-78
2024/02/15 02:50:12;;;;;;;;;;;;;;;10.16;100.00;100759.47;4974624;28;19981;-77
2024/02/15 02:52:42;;;;;;;;;;;;;;;9.87;100.00;100707.72;4974027;28;19930;-76
2024/02/15 02:55:11;;;;;;;;;;;;;;;10.14;100.00;100759.53;4974523;28;19934;-77
2024/02/15 02:57:42;;;;;;;;;;;;;;;10.13;100.00;100764.88;4978576;28;19965;-78
2024/02/15 03:00:12;;;;;;;;;;;;;;;10.11;100.00;100761.44;4990780;28;19921;-78
2024/02/15 03:02:41;;;;;;;;;;;;;;;10.13;100.00;100763.09;4973226;28;19929;-76
2024/02/15 03:05:11;;;;;;;;;;;;;;;10.10;100.00;100765.84;4974017;28;19932;-78
2024/02/15 03:07:40;;;;;;;;;;;;;;;10.10;100.00;100765.00;4960710;28;19925;-77
2024/02/15 03:10:09;;;;;;;;;;;;;;;10.13;100.00;100760.44;4976115;28;19961;-77
2024/02/15 03:12:37;;;;;;;;;;;;;;;10.13;100.00;100763.09;4977351;28;19925;-76
2024/02/15 03:15:11;;;;;;;;;;;;;;;10.13;100.00;100760.44;4992744;28;19928;-76
2024/02/15 03:17:39;;;;;;;;;;;;;;;10.15;100.00;100761.25;4974821;28;19921;-76
2024/02/15 03:20:11;;;;;;;;;;;;;;;10.14;100.00;100761.31;5002250;28;20020;-76
2024/02/15 03:22:43;;;;;;;;;;;;;;;10.14;100.00;100758.66;4970023;28;20312;-77
2024/02/15 03:25:10;;;;;;;;;;;;;;;10.15;100.00;100755.97;4974341;28;19921;-75
2024/02/15 03:27:39;;;;;;;;;;;;;;;10.15;100.00;100755.97;4975812;28;19976;-77
2024/02/15 03:30:10;;;;;;;;;;;;;;;10.16;100.00;100751.53;4972957;28;19929;-78
2024/02/15 03:32:38;;;;;;;;;;;;;;;10.15;100.00;100742.72;5000738;28;19930;-76
2024/02/15 03:35:06;;;;;;;;;;;;;;;10.17;100.00;100735.59;4976592;28;19968;-79
2024/02/15 03:37:36;;;;;;;;;;;;;;;10.18;100.00;100740.00;4960376;28;19929;-78
2024/02/15 03:40:06;;;;;;;;;;;;;;;10.19;100.00;100746.16;5000498;28;20021;-76
2024/02/15 03:42:36;;;;;;;;;;;;;;;10.16;100.00;100736.53;4973036;28;20731;-78
2024/02/15 03:45:06;;;;;;;;;;;;;;;10.17;100.00;100747.97;4989133;28;19926;-76
2024/02/15 03:47:36;;;;;;;;;;;;;;;10.17;100.00;100748.84;4977433;28;19930;-76
2024/02/15 03:50:04;;;;;;;;;;;;;;;10.16;100.00;100746.25;4971180;28;19930;-75
2024/02/15 03:52:35;;;;;;;;;;;;;;;10.14;100.00;100748.09;4969433;28;19930;-77
2024/02/15 03:55:03;;;;;;;;;;;;;;;10.14;100.00;100756.88;4965326;28;19929;-78
2024/02/15 03:57:31;;;;;;;;;;;;;;;10.13;100.00;100755.16;4962862;28;19936;-77
2024/02/15 03:59:58;;;;;;;;;;;;;;;10.12;100.00;100750.78;4963796;28;19926;-79
2024/02/15 04:02:28;;;;;;;;;;;;;;;10.11;100.00;100746.41;4932911;28;19937;-77
2024/02/15 04:04:58;;;;;;;;;;;;;;;10.10;100.00;100747.34;4956248;28;19933;-77
2024/02/15 04:07:26;;;;;;;;;;;;;;;10.10;100.00;100752.63;4954583;28;20444;-77
2024/02/15 04:09:56;;;;;;;;;;;;;;;10.09;100.00;100750.03;4964177;28;20012;-77
2024/02/15 04:12:23;;;;;;;;;;;;;;;10.07;100.00;100755.38;4950175;28;20057;-76
2024/02/15 04:14:51;;;;;;;;;;;;;;;10.06;100.00;100752.84;4955250;28;21199;-77
2024/02/15 04:17:21;;;;;;;;;;;;;;;10.04;100.00;100750.25;4982903;28;19930;-79
2024/02/15 04:19:50;;;;;;;;;;;;;;;10.02;100.00;100749.44;4972553;28;20910;-77
2024/02/15 04:22:20;;;;;;;;;;;;;;;10.01;100.00;100753.00;4949956;28;20021;-75
2024/02/15 04:24:51;;;;;;;;;;;;;;;10.00;100.00;100750.41;4958838;28;20377;-78
2024/02/15 04:27:20;;;;;;;;;;;;;;;9.98;100.00;100752.25;4971254;28;19923;-77
2024/02/15 04:29:50;;;;;;;;;;;;;;;9.98;100.00;100750.47;4956074;28;19937;-77
2024/02/15 04:32:19;;;;;;;;;;;;;;;9.97;100.00;100750.53;4950901;28;19934;-76
2024/02/15 04:34:48;;;;;;;;;;;;;;;9.95;100.00;100750.59;4962327;28;19922;-77
2024/02/15 04:37:16;;;;;;;;;;;;;;;9.95;100.00;100747.94;4964056;28;19992;-77
2024/02/15 04:39:47;;;;;;;;;;;;;;;9.96;100.00;100759.38;4926373;28;19930;-76
2024/02/15 04:42:18;;;;;;;;;;;;;;;9.95;100.00;100737.34;4937674;28;19973;-76
2024/02/15 04:44:46;;;;;;;;;;;;;;;9.95;100.00;100742.66;4943618;28;20415;-79
2024/02/15 04:47:13;;;;;;;;;;;;;;;9.95;100.00;100742.66;4983872;28;20241;-77
2024/02/15 04:49:44;;;;;;;;;;;;;;;9.95;100.00;100742.66;4957396;28;19922;-77
2024/02/15 04:52:12;;;;;;;;;;;;;;;9.96;100.00;100747.00;4972912;28;19934;-77
2024/02/15 04:54:39;;;;;;;;;;;;;;;9.94;100.00;100748.84;4971291;28;19952;-76
2024/02/15 04:57:11;;;;;;;;;;;;;;;9.93;100.00;100736.53;4974257;28;19926;-75
2024/02/15 04:59:40;;;;;;;;;;;;;;;9.93;100.00;100743.63;4998761;28;19926;-78
2024/02/15 05:02:08;;;;;;;;;;;;;;;9.91;100.00;100740.19;4987881;28;19948;-77
2024/02/15 05:04:37;;;;;;;;;;;;;;;9.57;100.00;100680.66;5007205;28;19925;-76
2024/02/15 05:07:05;;;;;;;;;;;;;;;9.89;100.00;100740.25;5010702;28;19929;-75
2024/02/15 05:09:32;;;;;;;;;;;;;;;9.87;100.00;100734.16;4979527;28;19944;-77
2024/02/15 05:12:02;;;;;;;;;;;;;;;9.85;100.00;100739.50;4979966;28;19928;-76
2024/02/15 05:14:32;;;;;;;;;;;;;;;9.85;100.00;100730.72;4995216;28;19928;-76
2024/02/15 05:17:00;;;;;;;;;;;;;;;9.88;100.00;100727.09;4978231;28;19929;-77
2024/02/15 05:19:30;;;;;;;;;;;;;;;9.85;100.00;100731.56;4981725;28;20446;-78
2024/02/15 05:22:05;;;;;;;;;;;;;;;9.86;100.00;100735.06;5004033;28;19929;-78
2024/02/15 05:24:35;;;;;;;;;;;;;;;9.87;100.00;100728.00;4991108;28;19925;-76
2024/02/15 05:27:04;;;;;;;;;;;;;;;9.87;100.00;100725.38;4982801;28;20588;-77
2024/02/15 05:29:34;;;;;;;;;;;;;;;9.89;100.00;100727.03;4976517;28;19921;-76
2024/02/15 05:32:03;;;;;;;;;;;;;;;9.92;100.00;100728.66;4973398;28;19926;-77
2024/02/15 05:34:31;;;;;;;;;;;;;;;9.92;100.00;100718.94;4994203;28;19936;-76
2024/02/15 05:36:59;;;;;;;;;;;;;;;9.55;100.00;100664.00;4981000;28;19997;-77
2024/02/15 05:39:27;;;;;;;;;;;;;;;9.92;100.00;100721.59;4994768;28;20033;-76
2024/02/15 05:42:00;;;;;;;;;;;;;;;9.94;100.00;100721.53;4963255;28;20403;-76
2024/02/15 05:44:28;;;;;;;;;;;;;;;9.94;100.00;100726.81;4979721;28;20380;-76
2024/02/15 05:46:58;;;;;;;;;;;;;;;9.92;100.00;100729.53;4964962;28;19925;-76
2024/02/15 05:49:27;;;;;;;;;;;;;;;9.92;100.00;100721.59;4998031;28;20020;-76
2024/02/15 05:51:55;;;;;;;;;;;;;;;9.90;100.00;100725.25;4975129;28;20010;-76
2024/02/15 05:54:23;;;;;;;;;;;;;;;9.90;100.00;100727.91;5004421;28;19946;-79
2024/02/15 05:56:53;;;;;;;;;;;;;;;9.89;100.00;100731.47;5006951;28;19949;-77
2024/02/15 05:59:22;;;;;;;;;;;;;;;9.90;100.00;100735.81;4979794;28;19951;-77
2024/02/15 06:01:49;;;;;;;;;;;;;;;9.90;100.00;100739.34;4978075;28;19926;-78
2024/02/15 06:04:19;;;;;;;;;;;;;;;9.89;100.00;100732.31;4977984;28;20021;-77
2024/02/15 06:06:50;;;;;;;;;;;;;;;9.87;100.00;100730.66;4963633;28;19936;-77
2024/02/15 06:09:21;;;;;;;;;;;;;;;9.85;100.00;100734.22;5008824;28;19929;-77
2024/02/15 06:11:51;;;;;;;;;;;;;;;9.84;100.00;100728.97;4992010;28;19926;-76
2024/02/15 06:14:20;;;;;;;;;;;;;;;9.82;100.00;100736.09;4964629;28;20043;-77
2024/02/15 06:16:47;;;;;;;;;;;;;;;9.80;100.00;100741.47;4975359;28;19921;-76
2024/02/15 06:19:15;;;;;;;;;;;;;;;9.78;100.00;100737.13;4995487;28;19929;-78
2024/02/15 06:21:46;;;;;;;;;;;;;;;9.77;100.00;100738.06;4980619;28;19962;-77
2024/02/15 06:24:15;;;;;;;;;;;;;;;9.75;100.00;100740.78;4988604;28;19925;-78
2024/02/15 06:26:44;;;;;;;;;;;;;;;9.74;100.00;100744.34;4979239;28;19929;-78
2024/02/15 06:40:25;;;;;;;;;;;;;;;9.78;100.00;100745.06;4989307;28;19941;-78
2024/02/15 06:43:00;;;;;;;;;;;;;;;9.79;100.00;100749.44;4960283;28;21058;-77
2024/02/15 06:45:31;;;;;;;;;;;;;;;9.79;100.00;100741.50;4977186;28;20012;-76
2024/02/15 06:48:01;;;;;;;;;;;;;;;9.78;100.00;100735.34;4976970;28;19930;-76
2024/02/15 06:50:29;;;;;;;;;;;;;;;9.79;100.00;100730.94;4980915;28;19937;-76
2024/02/15 06:52:58;;;;;;;;;;;;;;;9.79;100.00;100730.94;4990300;28;19933;-75
2024/02/15 06:55:26;;;;;;;;;;;;;;;9.79;100.00;100726.50;4985448;28;19933;-76
2024/02/15 06:57:54;;;;;;;;;;;;;;;9.81;100.00;100729.09;4981832;28;19964;-77
2024/02/15 07:00:21;;;;;;;;;;;;;;;9.81;100.00;100718.50;5014148;28;19930;-79
2024/02/15 07:02:53;;;;;;;;;;;;;;;9.84;100.00;100721.03;4989721;28;20035;-77
2024/02/15 07:05:24;;;;;;;;;;;;;;;9.88;100.00;100721.78;4999849;28;19932;-77
2024/02/15 07:07:54;;;;;;;;;;;;;;;9.91;100.00;100714.59;5005277;28;19929;-77
2024/02/15 07:10:24;;;;;;;;;;;;;;;9.96;100.00;100709.97;5003749;28;19933;-77
2024/02/15 07:12:52;;;;;;;;;;;;;;;10.03;100.00;100703.53;4991898;28;19930;-77
2024/02/15 07:15:20;;;;;;;;;;;;;;;10.07;100.00;100704.28;4966518;28;19933;-80
2024/02/15 07:17:48;;;;;;;;;;;;;;;10.12;100.00;100711.09;4985605;28;20020;-78
2024/02/15 07:20:17;;;;;;;;;;;;;;;10.11;100.00;100704.06;4980484;28;19944;-77
2024/02/15 07:22:45;;;;;;;;;;;;;;;10.08;100.00;100709.47;4995183;28;19936;-76
2024/02/15 07:25:14;;;;;;;;;;;;;;;10.02;100.00;100715.03;4987097;28;20433;-76
2024/02/15 07:27:43;;;;;;;;;;;;;;;10.00;100.00;100718.66;5011758;28;20455;-77
2024/02/15 07:30:13;;;;;;;;;;;;;;;9.98;100.00;100720.50;4973936;28;19936;-77
2024/02/15 07:32:41;;;;;;;;;;;;;;;9.97;100.00;100719.63;4969165;28;20425;-77
2024/02/15 07:35:09;;;;;;;;;;;;;;;9.99;100.00;100722.22;4989157;28;19928;-77
2024/02/15 07:37:37;;;;;;;;;;;;;;;10.01;100.00;100726.53;4968206;28;19929;-78
2024/02/15 07:40:08;;;;;;;;;;;;;;;10.04;100.00;100728.22;4977604;28;19935;-78
2024/02/15 07:42:37;;;;;;;;;;;;;;;10.08;100.00;100714.78;4977312;28;19929;-77
2024/02/15 07:45:11;;;;;;;;;;;;;;;10.12;100.00;100726.97;4977854;28;19932;-79
2024/02/15 07:47:38;;;;;;;;;;;;;;;10.14;100.00;100727.78;4976853;28;19925;-77
2024/02/15 07:50:06;;;;;;;;;;;;;;;10.18;100.00;100726.78;4978554;28;20029;-77
2024/02/15 07:52:34;;;;;;;;;;;;;;;10.26;100.00;100729.09;4980057;28;19937;-76
2024/02/15 07:55:08;;;;;;;;;;;;;;;10.32;100.00;100726.22;4974526;28;19933;-76
2024/02/15 07:57:36;;;;;;;;;;;;;;;10.36;100.00;100726.97;4998088;28;19948;-77
2024/02/15 08:00:10;;;;;;;;;;;;;;;10.38;100.00;100733.91;4982290;28;19933;-77
2024/02/15 08:02:41;;;;;;;;;;;;;;;10.39;100.00;100726.84;4991549;28;19937;-77
2024/02/15 08:05:10;;;;;;;;;;;;;;;10.39;100.00;100727.66;4990348;28;20027;-77
2024/02/15 08:07:41;;;;;;;;;;;;;;;10.43;100.00;100728.41;4979679;28;19933;-77
2024/02/15 08:10:12;;;;;;;;;;;;;;;10.45;100.00;100731.88;4994796;28;19925;-76
2024/02/15 08:12:43;;;;;;;;;;;;;;;10.48;100.00;100737.03;4997708;28;19925;-77
2024/02/15 08:15:12;;;;;;;;;;;;;;;10.48;100.00;100744.97;5005988;28;20024;-76
2024/02/15 08:17:42;;;;;;;;;;;;;;;10.48;100.00;100742.34;4965728;28;19929;-77
2024/02/15 08:20:13;;;;;;;;;;;;;;;10.51;100.00;100740.44;4991197;28;19960;-76
2024/02/15 08:22:43;;;;;;;;;;;;;;;10.55;100.00;100734.06;4980009;28;20693;-78
2024/02/15 08:25:11;;;;;;;;;;;;;;;10.63;100.00;100736.41;4997471;28;19925;-78
2024/02/15 08:27:42;;;;;;;;;;;;;;;10.71;100.00;100734.28;4985831;28;19979;-79
2024/02/15 08:30:11;;;;;;;;;;;;;;;10.74;100.00;100744.75;4987267;28;20459;-77
2024/02/15 08:32:41;;;;;;;;;;;;;;;10.79;100.00;100747.22;4997381;28;19925;-79
2024/02/15 08:35:11;;;;;;;;;;;;;;;10.87;100.00;100743.28;4995468;28;19930;-76
2024/02/15 08:37:39;;;;;;;;;;;;;;;10.96;100.00;100744.72;4982354;28;19968;-77
2024/02/15 08:40:10;;;;;;;;;;;;;;;10.96;100.00;100743.84;4970844;28;19957;-77
2024/02/15 08:42:39;;;;;;;;;;;;;;;10.98;100.00;100742.00;4993551;28;20947;-77
2024/02/15 08:45:08;;;;;;;;;;;;;;;11.02;100.00;100743.59;4991248;28;19925;-78
2024/02/15 08:47:38;;;;;;;;;;;;;;;11.10;100.00;100736.16;5001249;28;20734;-76
2024/02/15 08:50:08;;;;;;;;;;;;;;;11.14;100.00;100735.97;4993502;28;20315;-76
2024/02/15 08:52:38;;;;;;;;;;;;;;;11.13;100.00;100730.72;4999927;28;20410;-78
2024/02/15 08:55:10;;;;;;;;;;;;;;;11.16;100.00;100725.31;4999364;28;20363;-78
2024/02/15 08:57:40;;;;;;;;;;;;;;;11.15;100.00;100728.88;4983991;28;19922;-77
2024/02/15 09:00:13;;;;;;;;;;;;;;;11.18;100.00;100737.53;4982722;28;19944;-75
2024/02/15 09:02:45;;;;;;;;;;;;;;;11.23;100.00;100732.03;4962913;28;19929;-77
2024/02/15 09:05:14;;;;;;;;;;;;;;;11.25;100.00;100731.03;4977580;28;19965;-78
2024/02/15 09:07:47;;;;;;;;;;;;;;;11.30;100.00;100738.81;4992071;28;19929;-76
2024/02/15 09:10:16;;;;;;;;;;;;;;;11.32;100.00;100734.31;4965036;28;19945;-78
2024/02/15 09:12:47;;;;;;;;;;;;;;;11.31;100.00;100735.22;4977935;28;19941;-77
2024/02/15 09:15:15;;;;;;;;;;;;;;;11.30;100.00;100733.50;4994327;28;19921;-78
2024/02/15 09:17:45;;;;;;;;;;;;;;;11.36;100.00;100735.84;4994102;28;20044;-75
2024/02/15 09:20:15;;;;;;;;;;;;;;;11.41;100.00;100733.00;4969352;28;20399;-76
2024/02/15 09:22:48;;;;;;;;;;;;;;;11.41;100.00;100736.53;4982156;28;19981;-77
2024/02/15 09:25:16;;;;;;;;;;;;;;;11.46;100.00;100733.69;4978237;28;19967;-78
2024/02/15 09:27:45;;;;;;;;;;;;;;;11.57;100.00;100731.38;5012368;28;20412;-78
2024/02/15 09:30:14;;;;;;;;;;;;;;;11.68;100.00;100733.53;4984673;28;19980;-78
2024/02/15 09:32:44;;;;;;;;;;;;;;;11.81;100.00;100727.63;4981754;28;20008;-78
2024/02/15 09:35:13;;;;;;;;;;;;;;;11.99;100.00;100725.91;4984909;28;19929;-77
2024/02/15 09:37:45;;;;;;;;;;;;;;;12.03;100.00;100719.50;4986001;28;19933;-78
2024/02/15 09:40:15;;;;;;;;;;;;;;;12.07;100.00;100721.09;4984531;28;19922;-76
2024/02/15 09:42:45;;;;;;;;;;;;;;;12.16;100.00;100714.47;4980710;28;20273;-76
2024/02/15 09:45:17;;;;;;;;;;;;;;;12.29;100.00;100713.78;4975581;28;19932;-78
2024/02/15 09:47:45;;;;;;;;;;;;;;;12.43;100.00;100699.88;4992686;28;20024;-78
2024/02/15 09:50:14;;;;;;;;;;;;;;;12.45;100.00;100699.75;4976045;28;19926;-77
2024/02/15 09:52:46;;;;;;;;;;;;;;;12.41;100.00;100701.72;4968562;28;21156;-77
2024/02/15 09:55:15;;;;;;;;;;;;;;;12.52;100.00;100706.50;4976363;28;19922;-77
2024/02/15 09:57:43;;;;;;;;;;;;;;;12.57;100.00;100709.81;5013319;28;19940;-77
2024/02/15 10:00:13;;;;;;;;;;;;;;;12.56;100.00;100708.06;4960171;28;20277;-77
2024/02/15 10:02:44;;;;;;;;;;;;;;;12.48;100.00;100707.59;4983430;28;19957;-77
2024/02/15 10:05:13;;;;;;;;;;;;;;;12.45;100.00;100711.25;4978637;28;20344;-80
2024/02/15 10:07:44;;;;;;;;;;;;;;;12.52;100.00;100707.38;5005474;28;20415;-77
2024/02/15 10:10:19;;;;;;;;;;;;;;;12.58;100.00;100707.06;4978516;28;19925;-77
2024/02/15 10:12:49;;;;;;;;;;;;;;;12.63;100.00;100704.16;4976214;28;19928;-77
2024/02/15 10:15:28;;;;;;;;;;;;;;;12.71;100.00;100709.09;4973312;28;19995;-77
2024/02/15 10:18:05;;;;;;;;;;;;;;;12.74;100.00;100701.84;4987784;28;20105;-77
2024/02/15 10:20:34;;;;;;;;;;;;;;;12.72;100.00;100697.53;4980541;28;19921;-77
2024/02/15 10:23:12;;;;;;;;;;;;;;;12.66;100.00;100693.38;4974469;28;19930;-77
2024/02/15 10:25:41;;;;;;;;;;;;;;;12.57;100.00;100693.84;4969516;28;19930;-77
2024/02/15 10:28:11;;;;;;;;;;;;;;;12.61;100.00;100685.63;4979988;28;20012;-77
2024/02/15 10:30:43;;;;;;;;;;;;;;;12.72;100.00;100687.78;4975268;28;19922;-76
2024/02/15 10:33:12;;;;;;;;;;;;;;;12.80;100.00;100682.03;4976105;28;19953;-77
2024/02/15 10:35:40;;;;;;;;;;;;;;;12.82;100.00;100675.72;4970249;28;19937;-77
2024/02/15 10:38:09;;;;;;;;;;;;;;;12.75;100.00;100676.13;4961124;28;19922;-75
2024/02/15 10:40:38;;;;;;;;;;;;;;;12.68;100.00;100680.88;4974593;28;20339;-77
2024/02/15 10:43:08;;;;;;;;;;;;;;;12.67;100.00;100670.31;5003533;28;19926;-76
2024/02/15 10:45:37;;;;;;;;;;;;;;;12.57;100.00;100669.94;4970904;28;20448;-77
2024/02/15 10:48:06;;;;;;;;;;;;;;;12.46;100.00;100664.28;4973462;28;19930;-77
2024/02/15 10:50:35;;;;;;;;;;;;;;;12.47;100.00;100668.69;4975774;28;19928;-77
2024/02/15 10:53:12;;;;;;;;;;;;;;;12.50;100.00;100665.88;4963502;28;19929;-77
2024/02/15 10:55:41;;;;;;;;;;;;;;;12.53;100.00;100665.72;4988704;28;19922;-76
2024/02/15 10:58:14;;;;;;;;;;;;;;;12.56;100.00;100661.13;4976188;28;19925;-76
2024/02/15 11:00:43;;;;;;;;;;;;;;;12.65;100.00;100662.44;4985158;28;20014;-76
2024/02/15 11:03:20;;;;;;;;;;;;;;;12.69;100.00;100655.16;4986141;28;20082;-77
2024/02/15 11:05:48;;;;;;;;;;;;;;;12.71;100.00;100651.50;4983663;28;19932;-78
2024/02/15 11:08:16;;;;;;;;;;;;;;;12.83;100.00;100650.84;5005130;28;20020;-76
2024/02/15 11:10:45;;;;;;;;;;;;;;;12.98;100.00;100644.72;4974076;28;19930;-76
2024/02/15 11:13:14;;;;;;;;;;;;;;;13.14;100.00;100636.81;4979915;28;19925;-76
2024/02/15 11:15:45;;;;;;;;;;;;;;;13.18;100.00;100649.03;4970013;28;20040;-77
2024/02/15 11:18:13;;;;;;;;;;;;;;;13.11;100.00;100636.09;5004308;28;19930;-78
2024/02/15 11:20:54;;;;;;;;;;;;;;;13.08;100.00;100641.56;4975894;28;19936;-76
2024/02/15 11:23:25;;;;;;;;;;;;;;;13.00;100.00;100634.88;4970508;28;19929;-76
2024/02/15 11:26:04;;;;;;;;;;;;;;;12.99;100.00;100633.16;4956640;28;20013;-77
2024/02/15 11:28:40;;;;;;;;;;;;;;;13.06;100.00;100627.53;4985580;28;20384;-76
2024/02/15 11:31:09;;;;;;;;;;;;;;;13.22;100.00;100623.97;5002741;28;19922;-76
2024/02/15 11:33:38;;;;;;;;;;;;;;;13.41;100.00;100615.84;4986458;28;20008;-77
2024/02/15 11:36:07;;;;;;;;;;;;;;;13.58;100.00;100614.91;4971418;28;19922;-77
2024/02/15 11:38:36;;;;;;;;;;;;;;;13.68;100.00;100598.38;4986732;28;20368;-77
2024/02/15 11:41:05;;;;;;;;;;;;;;;13.64;100.00;100596.81;4963951;28;20345;-77
2024/02/15 11:43:58;;;;;;;;;;;;;;;13.68;100.00;100595.72;4972897;28;19921;-78
2024/02/15 11:46:30;;;;;;;;;;;;;;;13.73;100.00;100591.91;4969180;28;19926;-77
2024/02/15 11:48:59;;;;;;;;;;;;;;;13.66;100.00;100581.63;4989289;28;19981;-76
2024/02/15 11:51:29;;;;;;;;;;;;;;;13.68;100.00;100577.09;4974793;28;19930;-76
2024/02/15 11:54:01;;;;;;;;;;;;;;;13.68;100.00;100595.72;4972827;28;19933;-76
2024/02/15 11:56:28;;;;;;;;;;;;;;;13.65;100.00;100579.91;4972922;28;20400;-76
2024/02/15 11:59:06;;;;;;;;;;;;;;;13.80;100.00;100580.84;4974418;28;19925;-77
2024/02/15 12:21:03;;;;;;;;;;;;;;;13.89;100.00;100492.44;5007310;28;19925;-77
2024/02/15 12:23:33;;;;;;;;;;;;;;;14.38;100.00;100559.63;4966448;28;20256;-78
2024/02/15 12:26:03;;;;;;;;;;;;;;;14.52;100.00;100556.16;4975254;28;19933;-76
2024/02/15 12:28:31;;;;;;;;;;;;;;;14.62;100.00;100549.34;4964867;28;20726;-79
2024/02/15 12:31:01;;;;;;;;;;;;;;;14.72;100.00;100550.47;4994412;28;20017;-77
2024/02/15 12:33:29;;;;;;;;;;;;;;;14.80;100.00;100550.00;4981900;28;19926;-77
2024/02/15 12:36:04;;;;;;;;;;;;;;;14.84;100.00;100551.53;4978334;28;20005;-78
2024/02/15 12:38:34;;;;;;;;;;;;;;;14.88;100.00;100553.06;5008644;28;21288;-76
2024/02/15 12:41:02;;;;;;;;;;;;;;;14.78;100.00;100549.25;4982988;28;19945;-77
2024/02/15 12:43:30;;;;;;;;;;;;;;;14.71;100.00;100546.09;4985148;28;19926;-78
2024/02/15 12:46:02;;;;;;;;;;;;;;;14.69;100.00;100544.47;4980581;28;19993;-78
2024/02/15 12:48:29;;;;;;;;;;;;;;;14.55;100.00;100549.78;4977792;28;19984;-78
2024/02/15 12:50:59;;;;;;;;;;;;;;;14.44;100.00;100545.13;4981099;28;19957;-78
2024/02/15 12:53:27;;;;;;;;;;;;;;;14.41;100.00;100537.31;5006839;28;20284;-78
2024/02/15 12:55:55;;;;;;;;;;;;;;;14.38;100.00;100535.66;4971303;28;19929;-77
2024/02/15 12:58:26;;;;;;;;;;;;;;;14.23;100.00;100533.06;4974271;28;20044;-78
2024/02/15 13:00:58;;;;;;;;;;;;;;;14.25;100.00;100534.69;4979904;28;20431;-78
2024/02/15 13:03:27;;;;;;;;;;;;;;;14.32;100.00;100528.00;4976690;28;19932;-76
2024/02/15 13:05:57;;;;;;;;;;;;;;;14.31;100.00;100523.66;4976484;28;20554;-78
2024/02/15 13:08:24;;;;;;;;;;;;;;;14.44;100.00;100530.94;4980916;28;19928;-79
2024/02/15 13:10:52;;;;;;;;;;;;;;;14.55;100.00;100523.16;4974409;28;19985;-78